Time;durP1;ratioP1;P1;durP2;ratioP2;P2;SDS_P1;SDS_P2;PMS_P1;PMS_P2;Temp;Humidity;BMP_temperature;BMP_pressure;BME280_temperature;BME280_humidity;BME280_pressure;Samples;Min_cycle;Max_cycle;Signal;HPM_P1;HPM_P2
2023/06/09 00:01:44;;;;;;;5.80;4.40;;;;;;;14.75;69.42;100518.80;104039;276;38477;-67
2023/06/09 00:04:21;;;;;;;7.80;4.00;;;;;;;14.71;69.40;100515.33;104065;276;38676;-68
2023/06/09 00:06:55;;;;;;;5.20;4.00;;;;;;;14.66;69.72;100512.92;104031;276;38375;-69
2023/06/09 00:09:30;;;;;;;7.10;4.50;;;;;;;14.65;69.84;100513.17;103832;276;39399;-69
2023/06/09 00:12:04;;;;;;;4.70;4.30;;;;;;;14.63;70.00;100510.30;104053;276;38697;-70
2023/06/09 00:14:39;;;;;;;5.50;5.00;;;;;;;14.60;70.13;100509.38;104013;276;38749;-69
2023/06/09 00:17:13;;;;;;;5.80;4.70;;;;;;;14.56;70.14;100510.81;104053;276;38902;-71
2023/06/09 00:19:47;;;;;;;5.90;4.30;;;;;;;14.53;70.10;100506.45;104041;276;38820;-69
2023/06/09 00:22:26;;;;;;;5.40;4.10;;;;;;;14.50;70.23;100510.07;103828;278;39374;-69
2023/06/09 00:25:02;;;;;;;6.50;4.60;;;;;;;14.48;70.57;100505.44;104018;276;39659;-70
2023/06/09 00:27:39;;;;;;;6.30;4.40;;;;;;;14.46;70.71;100506.41;104032;265;38273;-70
2023/06/09 00:30:16;;;;;;;5.80;4.70;;;;;;;14.43;70.70;100503.77;104031;276;38252;-68
2023/06/09 00:32:52;;;;;;;7.30;4.50;;;;;;;14.39;71.01;100505.17;104015;264;38528;-69
2023/06/09 00:35:33;;;;;;;4.90;4.30;;;;;;;14.36;70.90;100506.04;104067;276;38358;-69
2023/06/09 00:38:15;;;;;;;5.00;4.40;;;;;;;14.33;71.05;100507.27;103995;276;38428;-69
2023/06/09 00:40:51;;;;;;;5.10;4.20;;;;;;;14.31;71.27;100502.60;104027;276;39908;-70
2023/06/09 00:43:29;;;;;;;5.60;4.70;;;;;;;14.30;71.16;100502.31;104021;276;38243;-71
2023/06/09 00:46:07;;;;;;;7.50;5.10;;;;;;;14.27;71.24;100500.73;104068;276;38474;-71
2023/06/09 00:48:42;;;;;;;6.00;4.70;;;;;;;14.23;71.44;100505.31;104029;276;39670;-69
2023/06/09 00:51:15;;;;;;;6.80;4.70;;;;;;;14.19;71.43;100507.30;104058;276;39792;-71
2023/06/09 00:53:50;;;;;;;5.30;4.50;;;;;;;14.16;71.44;100508.81;103932;276;174737;-70
2023/06/09 00:56:24;;;;;;;8.90;4.80;;;;;;;14.14;71.57;100508.77;104018;276;38472;-70
2023/06/09 00:58:58;;;;;;;8.60;4.90;;;;;;;14.11;71.71;100507.16;104068;276;38870;-71
2023/06/09 01:01:37;;;;;;;5.50;4.90;;;;;;;14.08;71.77;100503.60;103789;276;39191;-67
2023/06/09 01:04:14;;;;;;;12.20;5.40;;;;;;;14.04;71.74;100503.82;104046;276;38409;-69
2023/06/09 01:06:56;;;;;;;6.90;4.70;;;;;;;14.00;71.81;100505.46;104022;276;39680;-69
2023/06/09 01:09:34;;;;;;;4.90;4.10;;;;;;;13.95;72.06;100505.85;104074;276;38993;-70
2023/06/09 01:12:17;;;;;;;6.80;5.20;;;;;;;13.91;72.28;100506.19;104027;276;40043;-70
2023/06/09 01:14:54;;;;;;;6.40;4.50;;;;;;;13.90;72.44;100505.21;104052;276;39394;-70
2023/06/09 01:17:30;;;;;;;6.60;4.90;;;;;;;13.89;72.73;100503.66;104067;276;38656;-70
2023/06/09 01:20:05;;;;;;;5.60;4.80;;;;;;;13.88;72.64;100499.88;104019;276;39623;-71
2023/06/09 01:22:54;;;;;;;6.70;5.40;;;;;;;13.87;72.66;100505.71;104017;276;38477;-71
2023/06/09 01:25:35;;;;;;;5.50;4.90;;;;;;;13.85;72.78;100503.70;104028;276;38272;-70
2023/06/09 01:28:11;;;;;;;8.10;5.20;;;;;;;13.80;72.96;100502.21;104044;276;38682;-71
2023/06/09 01:30:46;;;;;;;8.90;5.60;;;;;;;13.78;73.00;100500.92;103462;276;897784;-70
2023/06/09 01:33:23;;;;;;;7.70;5.90;;;;;;;13.72;72.89;100502.27;104054;276;38555;-70
2023/06/09 01:35:57;;;;;;;5.80;5.20;;;;;;;13.64;73.03;100501.25;103410;276;913724;-71
2023/06/09 01:38:31;;;;;;;7.30;5.30;;;;;;;13.60;73.36;100502.82;104025;276;39224;-70
2023/06/09 01:41:05;;;;;;;9.00;4.80;;;;;;;13.58;73.21;100504.18;104072;276;38306;-70
2023/06/09 01:43:40;;;;;;;6.10;5.30;;;;;;;13.57;73.39;100503.85;103925;276;175100;-71
2023/06/09 01:46:14;;;;;;;7.00;5.50;;;;;;;13.59;73.89;100498.86;104004;276;39928;-69
2023/06/09 01:48:58;;;;;;;6.90;5.40;;;;;;;13.58;73.99;100497.13;104026;276;38268;-71
2023/06/09 01:51:37;;;;;;;7.70;5.90;;;;;;;13.55;74.12;100500.97;104027;276;39391;-69
2023/06/09 01:54:13;;;;;;;6.60;5.20;;;;;;;13.53;74.24;100500.21;103956;276;175125;-69
2023/06/09 01:56:48;;;;;;;7.80;6.10;;;;;;;13.52;74.19;100502.17;104055;276;38505;-69
2023/06/09 01:59:26;;;;;;;8.10;5.60;;;;;;;13.50;74.24;100501.73;104041;276;39331;-70
2023/06/09 02:02:00;;;;;;;6.50;6.00;;;;;;;13.48;74.20;100500.60;104046;276;38676;-69
2023/06/09 02:04:34;;;;;;;6.60;5.90;;;;;;;13.43;74.19;100499.64;104036;276;37955;-71
2023/06/09 02:07:16;;;;;;;6.90;6.10;;;;;;;13.36;74.16;100497.30;104027;276;38892;-70
2023/06/09 02:09:50;;;;;;;6.30;5.70;;;;;;;13.31;74.18;100501.22;104020;276;38520;-70
2023/06/09 02:12:24;;;;;;;7.40;5.80;;;;;;;13.27;74.13;100507.21;104042;276;38396;-72
2023/06/09 02:14:58;;;;;;;7.00;6.10;;;;;;;13.25;74.40;100510.27;104066;276;40008;-70
2023/06/09 02:17:33;;;;;;;7.80;6.20;;;;;;;13.25;74.55;100516.44;104075;276;38264;-71
2023/06/09 02:20:10;;;;;;;7.00;5.90;;;;;;;13.20;74.43;100515.38;104066;276;39025;-69
2023/06/09 02:22:45;;;;;;;6.90;6.30;;;;;;;13.16;74.56;100512.05;104109;276;38752;-69
2023/06/09 02:25:19;;;;;;;6.90;5.80;;;;;;;13.18;74.94;100513.37;104095;276;38290;-68
2023/06/09 02:27:53;;;;;;;9.20;6.10;;;;;;;13.22;75.25;100513.06;104031;276;38538;-70
2023/06/09 02:30:29;;;;;;;7.50;6.50;;;;;;;13.22;75.11;100513.03;104069;276;38254;-71
2023/06/09 02:33:03;;;;;;;7.70;6.60;;;;;;;13.18;74.99;100516.02;104031;276;38639;-71
2023/06/09 02:35:37;;;;;;;9.90;6.60;;;;;;;13.14;75.29;100512.50;104068;276;39032;-70
2023/06/09 02:38:26;;;;;;;6.70;6.10;;;;;;;13.14;75.50;100514.41;103961;276;39526;-70
2023/06/09 02:41:04;;;;;;;6.90;6.30;;;;;;;13.13;75.46;100514.66;104012;277;38635;-70
2023/06/09 02:43:42;;;;;;;9.50;6.60;;;;;;;13.13;75.61;100515.71;103875;277;189519;-70
2023/06/09 02:46:17;;;;;;;8.60;7.00;;;;;;;13.13;75.81;100516.39;104095;277;38986;-68
2023/06/09 02:48:52;;;;;;;8.30;7.40;;;;;;;13.14;75.96;100520.23;103864;278;41732;-70
2023/06/09 02:51:26;;;;;;;8.00;6.70;;;;;;;13.15;76.10;100518.92;103987;277;38396;-68
2023/06/09 02:54:00;;;;;;;8.60;7.30;;;;;;;13.17;76.20;100518.85;103997;277;38252;-69
2023/06/09 02:56:34;;;;;;;7.70;6.40;;;;;;;13.18;76.21;100519.34;103994;277;38244;-69
2023/06/09 02:59:10;;;;;;;8.10;7.10;;;;;;;13.22;76.34;100521.30;104024;277;38546;-68
2023/06/09 03:01:44;;;;;;;8.10;6.70;;;;;;;13.25;76.48;100522.38;103980;277;38355;-68
2023/06/09 03:04:21;;;;;;;10.60;7.90;;;;;;;13.31;76.78;100526.98;104012;277;38510;-70
2023/06/09 03:06:55;;;;;;;10.10;7.80;;;;;;;13.39;76.99;100526.62;103983;277;40273;-71
2023/06/09 03:09:33;;;;;;;11.70;7.90;;;;;;;13.49;77.17;100526.89;103981;277;38627;-68
2023/06/09 03:12:09;;;;;;;8.20;7.30;;;;;;;13.57;77.37;100527.36;103976;277;38261;-68
2023/06/09 03:14:45;;;;;;;9.90;6.80;;;;;;;13.66;77.57;100527.75;103868;278;39424;-72
2023/06/09 03:17:19;;;;;;;8.40;7.60;;;;;;;13.74;77.47;100524.77;103988;277;38610;-71
2023/06/09 03:19:53;;;;;;;8.80;7.40;;;;;;;13.81;77.54;100530.36;103989;277;39399;-71
2023/06/09 03:22:28;;;;;;;8.80;7.80;;;;;;;13.87;77.50;100531.31;103398;278;609950;-71
2023/06/09 03:25:02;;;;;;;10.70;7.50;;;;;;;13.92;77.71;100534.59;103997;277;38259;-71
2023/06/09 03:27:36;;;;;;;9.50;7.30;;;;;;;14.00;77.60;100532.80;103990;277;39419;-71
2023/06/09 03:30:12;;;;;;;8.60;7.00;;;;;;;14.20;77.94;100536.36;103994;277;38991;-71
2023/06/09 03:32:46;;;;;;;12.00;8.60;;;;;;;14.45;78.00;100539.11;104026;277;38497;-69
2023/06/09 03:35:23;;;;;;;11.80;8.50;;;;;;;14.86;78.60;100538.58;104019;277;38494;-69
2023/06/09 03:38:00;;;;;;;11.50;8.30;;;;;;;15.64;79.64;100535.16;103996;277;38370;-68
2023/06/09 03:40:34;;;;;;;13.00;9.20;;;;;;;16.59;79.16;100535.67;104000;277;38241;-71
2023/06/09 03:43:08;;;;;;;13.70;8.70;;;;;;;17.49;77.05;100530.76;103966;277;39619;-71
2023/06/09 03:45:42;;;;;;;12.70;9.00;;;;;;;18.44;74.83;100531.40;103953;277;40394;-70
2023/06/09 03:48:16;;;;;;;10.70;8.40;;;;;;;19.45;72.96;100530.86;103843;278;38236;-71
2023/06/09 03:50:51;;;;;;;15.70;9.70;;;;;;;20.47;69.72;100531.26;103995;277;38594;-70
2023/06/09 03:53:25;;;;;;;12.40;9.40;;;;;;;21.40;65.54;100531.52;103958;277;39411;-70
2023/06/09 03:56:00;;;;;;;13.20;8.40;;;;;;;22.23;63.24;100529.38;103976;265;38272;-70
2023/06/09 04:01:22;;;;;;;11.30;8.90;;;;;;;23.95;56.63;100538.30;103963;277;39868;-72
2023/06/09 04:03:57;;;;;;;10.50;8.30;;;;;;;24.48;52.85;100539.83;104038;277;38465;-70
2023/06/09 04:06:31;;;;;;;11.90;7.90;;;;;;;25.02;51.12;100540.25;104022;278;37961;-71
2023/06/09 04:09:06;;;;;;;9.20;7.50;;;;;;;25.50;49.68;100541.30;104034;277;38262;-70
2023/06/09 04:11:40;;;;;;;9.80;7.60;;;;;;;25.87;47.35;100539.50;103787;278;38343;-68
2023/06/09 04:14:16;;;;;;;7.90;7.10;;;;;;;26.39;46.30;100543.47;103844;279;38907;-69
2023/06/09 04:16:50;;;;;;;7.90;7.00;;;;;;;26.86;44.72;100536.69;103809;279;38928;-68
2023/06/09 04:19:24;;;;;;;8.80;6.80;;;;;;;27.22;43.03;100538.16;103792;278;38475;-69
2023/06/09 04:22:04;;;;;;;8.50;6.70;;;;;;;27.42;42.08;100538.73;103720;279;174384;-70
2023/06/09 04:24:39;;;;;;;10.30;6.90;;;;;;;27.20;41.53;100536.60;103820;279;38581;-71
2023/06/09 04:27:15;;;;;;;8.80;6.40;;;;;;;26.55;41.64;100537.73;103824;279;39673;-69
2023/06/09 04:29:49;;;;;;;9.60;7.00;;;;;;;25.76;42.29;100539.60;103821;279;38424;-70
2023/06/09 04:32:24;;;;;;;9.90;7.10;;;;;;;25.24;43.54;100543.30;103677;279;174232;-69
2023/06/09 04:34:59;;;;;;;12.50;7.30;;;;;;;24.79;44.15;100542.92;103831;279;39971;-71
2023/06/09 04:37:35;;;;;;;11.60;7.10;;;;;;;24.40;44.71;100542.75;103695;279;38543;-72
2023/06/09 04:40:14;;;;;;;12.90;8.50;;;;;;;23.93;45.63;100544.75;103830;278;39258;-69
2023/06/09 04:42:50;;;;;;;13.70;10.30;;;;;;;23.53;46.34;100541.02;103200;279;893384;-70
2023/06/09 04:45:27;;;;;;;14.70;9.90;;;;;;;23.24;47.29;100544.16;103806;279;38249;-69
2023/06/09 04:48:01;;;;;;;11.60;8.90;;;;;;;23.23;47.67;100538.88;103826;279;39446;-67
2023/06/09 04:50:37;;;;;;;10.90;7.20;;;;;;;23.23;47.85;100542.98;103811;279;39718;-70
2023/06/09 04:53:11;;;;;;;8.10;7.30;;;;;;;23.35;48.23;100536.75;103816;279;38900;-72
2023/06/09 04:55:45;;;;;;;8.50;7.80;;;;;;;23.56;47.99;100535.27;103863;279;39792;-70
2023/06/09 04:58:19;;;;;;;8.60;7.10;;;;;;;23.76;47.72;100533.64;103782;279;38506;-68
2023/06/09 05:00:53;;;;;;;9.40;7.50;;;;;;;24.12;48.21;100531.92;103823;278;39660;-70
2023/06/09 05:03:28;;;;;;;8.50;6.80;;;;;;;25.08;48.28;100532.36;103883;279;38235;-72
2023/06/09 05:06:05;;;;;;;7.00;6.20;;;;;;;26.14;46.80;100530.30;103780;279;38707;-71
2023/06/09 05:08:42;;;;;;;8.70;6.60;;;;;;;27.22;44.58;100529.20;103780;278;38914;-71
2023/06/09 05:11:16;;;;;;;8.10;6.00;;;;;;;28.24;42.35;100530.34;103816;279;39882;-72
2023/06/09 05:13:50;;;;;;;7.50;6.50;;;;;;;29.01;40.44;100526.86;103961;278;39393;-70
2023/06/09 05:16:25;;;;;;;6.30;5.60;;;;;;;29.71;38.71;100524.74;103982;277;38243;-71
2023/06/09 05:19:01;;;;;;;8.10;5.40;;;;;;;30.41;37.43;100525.26;104018;277;39372;-68
2023/06/09 05:21:36;;;;;;;8.40;5.50;;;;;;;30.99;35.78;100525.51;103993;277;38757;-70
2023/06/09 05:24:10;;;;;;;8.10;5.60;;;;;;;31.43;34.93;100526.16;104065;277;38772;-70
2023/06/09 05:26:45;;;;;;;8.30;5.60;;;;;;;31.87;34.10;100526.14;104008;277;38520;-70
2023/06/09 05:29:20;;;;;;;8.40;5.60;;;;;;;32.27;33.17;100526.30;104020;277;39423;-71
2023/06/09 05:31:54;;;;;;;11.20;5.60;;;;;;;32.57;32.54;100529.10;104025;277;39313;-72
2023/06/09 05:34:27;;;;;;;7.60;5.00;;;;;;;32.86;32.17;100531.38;104032;277;39446;-71
2023/06/09 05:37:04;;;;;;;8.30;5.00;;;;;;;33.04;31.13;100533.46;104022;277;38249;-72
2023/06/09 05:39:38;;;;;;;5.80;4.90;;;;;;;33.27;30.83;100523.13;104035;277;38635;-71
2023/06/09 05:42:12;;;;;;;7.40;5.00;;;;;;;33.72;30.15;100524.33;103982;270;38428;-72
2023/06/09 05:44:46;;;;;;;11.80;5.40;;;;;;;34.18;29.90;100525.23;104020;277;39553;-71
2023/06/09 05:47:20;;;;;;;9.70;5.50;;;;;;;34.49;29.42;100522.74;104015;277;39722;-72
2023/06/09 05:49:54;;;;;;;9.50;5.50;;;;;;;34.70;28.65;100521.07;104004;277;39668;-71
2023/06/09 05:52:28;;;;;;;11.60;5.80;;;;;;;35.00;28.33;100522.93;103969;277;38416;-72
2023/06/09 05:55:02;;;;;;;9.50;5.60;;;;;;;35.29;27.43;100519.42;104013;277;39648;-68
2023/06/09 05:57:37;;;;;;;14.90;6.00;;;;;;;35.42;27.46;100523.54;103986;277;38667;-68
2023/06/09 06:00:15;;;;;;;12.50;5.70;;;;;;;35.37;26.90;100524.96;104036;277;39730;-70
2023/06/09 06:02:49;;;;;;;14.40;5.30;;;;;;;35.31;26.91;100530.05;104006;277;39593;-70
2023/06/09 06:05:24;;;;;;;8.20;4.80;;;;;;;35.46;27.01;100528.27;104016;277;38561;-71
2023/06/09 06:07:58;;;;;;;7.10;5.00;;;;;;;35.73;26.66;100525.43;103968;277;38689;-78
2023/06/09 06:10:32;;;;;;;8.10;4.90;;;;;;;36.16;26.17;100530.39;104001;277;38502;-69
2023/06/09 06:13:07;;;;;;;7.80;4.60;;;;;;;36.46;25.92;100529.13;103977;277;39402;-70
2023/06/09 06:15:42;;;;;;;10.30;5.30;;;;;;;36.57;25.14;100531.34;104016;277;39969;-72
2023/06/09 06:18:16;;;;;;;6.40;4.70;;;;;;;36.59;25.34;100530.53;104021;277;40497;-72
2023/06/09 06:20:50;;;;;;;8.20;4.60;;;;;;;36.77;24.98;100527.91;104020;277;38523;-70
2023/06/09 06:23:25;;;;;;;7.50;4.80;;;;;;;36.82;24.88;100525.20;103983;277;38261;-70
2023/06/09 06:25:59;;;;;;;7.60;4.50;;;;;;;37.09;25.12;100521.36;103935;277;173524;-71
2023/06/09 06:28:33;;;;;;;10.30;4.80;;;;;;;37.46;24.65;100517.41;104024;277;38454;-71
2023/06/09 06:31:13;;;;;;;4.90;4.10;;;;;;;37.39;23.85;100514.39;103993;277;38489;-70
2023/06/09 06:33:47;;;;;;;6.20;4.30;;;;;;;37.19;23.80;100516.90;104019;277;39012;-71
2023/06/09 06:36:22;;;;;;;7.10;3.80;;;;;;;37.05;23.88;100516.11;104048;277;38697;-70
2023/06/09 06:38:56;;;;;;;4.80;4.10;;;;;;;37.05;23.60;100512.58;104054;277;38515;-72
2023/06/09 06:41:30;;;;;;;4.40;3.80;;;;;;;37.17;23.63;100507.95;104019;277;39029;-72
2023/06/09 06:44:04;;;;;;;6.30;3.90;;;;;;;37.48;23.37;100502.89;104007;265;38304;-71
2023/06/09 06:46:38;;;;;;;5.30;3.90;;;;;;;37.52;22.72;100499.06;104024;277;38685;-71
2023/06/09 06:49:12;;;;;;;6.30;4.00;;;;;;;37.37;22.93;100501.85;104009;277;40028;-70
2023/06/09 06:51:46;;;;;;;4.60;3.50;;;;;;;37.17;23.25;100503.16;104016;277;38284;-71
2023/06/09 06:54:21;;;;;;;7.00;3.40;;;;;;;37.24;23.23;100499.54;104044;277;38320;-70
2023/06/09 06:56:55;;;;;;;6.30;3.80;;;;;;;37.24;23.46;100504.27;104033;277;38278;-73
2023/06/09 06:59:29;;;;;;;4.40;3.60;;;;;;;37.41;22.90;100502.94;104031;277;39514;-73
2023/06/09 07:02:05;;;;;;;5.70;3.60;;;;;;;37.64;22.68;100504.78;103998;277;38807;-72
2023/06/09 07:04:39;;;;;;;5.50;3.10;;;;;;;37.78;22.15;100505.59;104067;277;38463;-71
2023/06/09 07:07:15;;;;;;;6.30;3.20;;;;;;;37.92;22.50;100505.52;103990;277;39692;-72
2023/06/09 07:09:49;;;;;;;6.40;4.10;;;;;;;38.35;22.22;100509.71;104034;277;39787;-71
2023/06/09 07:12:23;;;;;;;6.30;3.50;;;;;;;38.52;22.12;100508.41;103998;277;38687;-71
2023/06/09 07:14:59;;;;;;;7.60;3.50;;;;;;;38.78;21.97;100507.13;104023;277;39395;-68
2023/06/09 07:17:35;;;;;;;6.10;3.40;;;;;;;38.77;21.25;100512.78;104026;277;39460;-69
2023/06/09 07:20:12;;;;;;;8.00;3.60;;;;;;;38.62;21.66;100505.41;104001;277;38258;-69
2023/06/09 07:22:51;;;;;;;5.80;3.70;;;;;;;38.72;21.44;100506.39;104015;277;38606;-69
2023/06/09 07:25:31;;;;;;;6.10;4.00;;;;;;;38.76;21.13;100506.16;103975;277;38250;-70
2023/06/09 07:28:05;;;;;;;6.20;4.20;;;;;;;38.88;21.35;100512.40;104010;277;38752;-69
2023/06/09 07:30:44;;;;;;;5.10;3.20;;;;;;;39.08;20.80;100508.85;103992;277;39568;-72
2023/06/09 07:33:19;;;;;;;6.40;3.00;;;;;;;39.28;20.23;100501.57;104021;277;38519;-73
2023/06/09 07:35:54;;;;;;;2.50;2.30;;;;;;;39.37;20.24;100504.53;104043;277;38492;-72
2023/06/09 07:38:28;;;;;;;4.70;2.90;;;;;;;39.35;19.98;100506.70;104033;277;39146;-72
2023/06/09 07:41:02;;;;;;;4.00;2.80;;;;;;;39.30;20.32;100502.16;104056;277;39499;-69
2023/06/09 07:43:36;;;;;;;4.90;3.20;;;;;;;39.22;19.99;100511.68;103995;277;39482;-69
2023/06/09 07:46:13;;;;;;;2.80;2.50;;;;;;;39.13;20.06;100507.17;104007;277;38239;-72
2023/06/09 07:48:47;;;;;;;3.00;2.70;;;;;;;39.20;20.02;100506.34;104015;277;38508;-71
2023/06/09 07:51:21;;;;;;;4.40;2.80;;;;;;;39.36;20.03;100505.77;103995;277;40067;-70
2023/06/09 07:53:56;;;;;;;4.50;3.10;;;;;;;39.06;19.67;100506.36;103911;277;173744;-71
2023/06/09 07:56:29;;;;;;;3.30;2.70;;;;;;;38.96;20.12;100503.87;104016;277;38516;-73
2023/06/09 07:59:04;;;;;;;4.40;2.90;;;;;;;39.02;20.10;100493.02;103926;277;171110;-71
2023/06/09 08:01:38;;;;;;;5.00;3.00;;;;;;;39.14;20.08;100495.36;103981;277;38698;-72
2023/06/09 08:04:14;;;;;;;7.00;3.40;;;;;;;39.16;20.18;100493.55;103988;277;38824;-70
2023/06/09 08:06:50;;;;;;;3.60;3.10;;;;;;;39.25;20.09;100491.33;103795;278;39859;-70
2023/06/09 08:09:24;;;;;;;3.80;3.10;;;;;;;39.32;19.81;100493.53;103981;278;40648;-72
2023/06/09 08:12:00;;;;;;;3.60;3.00;;;;;;;39.37;19.69;100493.59;104001;278;39932;-73
2023/06/09 08:14:34;;;;;;;3.40;3.10;;;;;;;39.22;19.89;100487.81;103997;277;38397;-71
2023/06/09 08:17:11;;;;;;;6.50;3.00;;;;;;;39.25;19.91;100487.82;103985;277;39482;-73
2023/06/09 08:19:45;;;;;;;4.10;3.30;;;;;;;39.15;19.64;100488.70;104035;277;38654;-70
2023/06/09 08:22:19;;;;;;;6.10;3.20;;;;;;;39.07;19.69;100489.63;103971;277;40175;-70
2023/06/09 08:24:54;;;;;;;7.30;3.40;;;;;;;39.20;19.71;100487.51;103924;277;176089;-73
2023/06/09 08:27:28;;;;;;;7.90;3.10;;;;;;;39.39;18.94;100491.48;104008;277;38457;-73
2023/06/09 08:30:06;;;;;;;5.50;3.00;;;;;;;39.22;19.43;100490.55;104056;277;38807;-71
2023/06/09 08:32:41;;;;;;;5.30;3.30;;;;;;;39.33;19.25;100492.63;104004;277;38436;-71
2023/06/09 08:35:16;;;;;;;4.40;3.20;;;;;;;39.38;19.51;100490.25;104042;277;39665;-70
2023/06/09 08:37:50;;;;;;;4.30;3.40;;;;;;;39.69;19.09;100492.60;104008;277;39674;-69
2023/06/09 08:40:28;;;;;;;4.30;3.00;;;;;;;39.98;18.89;100486.89;104024;277;38519;-72
2023/06/09 08:43:04;;;;;;;4.80;3.00;;;;;;;39.99;18.98;100492.13;103990;277;38800;-72
2023/06/09 08:45:41;;;;;;;5.60;3.40;;;;;;;39.95;18.99;100492.55;103989;278;38782;-69
2023/06/09 08:48:16;;;;;;;4.10;3.10;;;;;;;39.95;18.41;100494.24;103978;277;38673;-69
2023/06/09 08:50:54;;;;;;;3.90;3.00;;;;;;;39.76;18.29;100495.02;104006;277;39683;-70
2023/06/09 08:53:28;;;;;;;3.10;2.90;;;;;;;39.54;18.67;100490.88;101829;277;3014066;-70
2023/06/09 08:56:05;;;;;;;4.40;3.30;;;;;;;39.00;18.82;100494.57;103839;277;38951;-71
2023/06/09 08:58:41;;;;;;;6.10;3.30;;;;;;;38.37;19.59;100497.65;104029;277;39719;-70
2023/06/09 09:01:17;;;;;;;6.40;3.40;;;;;;;38.10;20.13;100495.76;103846;278;38743;-72
2023/06/09 09:03:51;;;;;;;3.50;2.90;;;;;;;38.11;20.17;100488.34;104018;277;38238;-71
2023/06/09 09:06:26;;;;;;;5.30;3.20;;;;;;;38.11;19.79;100483.98;104006;277;39686;-72
2023/06/09 09:09:00;;;;;;;4.80;3.00;;;;;;;38.05;19.90;100487.36;104038;277;38600;-71
2023/06/09 09:11:34;;;;;;;3.40;3.00;;;;;;;37.78;20.30;100488.11;104002;277;38821;-72
2023/06/09 09:14:14;;;;;;;7.90;3.30;;;;;;;37.31;20.38;100486.77;104021;277;39642;-69
2023/06/09 09:16:48;;;;;;;3.40;3.00;;;;;;;36.63;20.57;100484.80;104003;277;39639;-69
2023/06/09 09:19:29;;;;;;;4.30;3.40;;;;;;;35.88;21.02;100491.66;104018;277;39919;-71
2023/06/09 09:22:08;;;;;;;5.30;3.30;;;;;;;35.24;22.04;100488.05;104038;277;39554;-72
2023/06/09 09:24:46;;;;;;;5.50;3.20;;;;;;;35.08;22.51;100485.75;103859;277;38681;-70
2023/06/09 09:27:19;;;;;;;;;;;;;;;34.76;22.55;100480.28;104011;277;40267;-70
2023/06/09 09:29:53;;;;;;;4.10;2.90;;;;;;;34.32;22.53;100480.30;103996;277;39362;-70
2023/06/09 09:32:30;;;;;;;6.90;3.20;;;;;;;33.99;23.05;100478.35;103804;277;38413;-70
2023/06/09 09:35:06;;;;;;;3.90;2.90;;;;;;;33.76;23.39;100471.48;104030;277;38310;-69
2023/06/09 09:37:39;;;;;;;7.20;3.00;;;;;;;33.64;23.58;100471.33;104007;277;38235;-69
2023/06/09 09:40:18;;;;;;;4.60;2.90;;;;;;;33.47;23.31;100476.34;104029;277;38503;-69
2023/06/09 09:42:57;;;;;;;4.80;3.10;;;;;;;33.10;23.44;100472.37;104003;277;39770;-68
2023/06/09 09:45:38;;;;;;;3.70;3.10;;;;;;;32.85;23.75;100472.34;104025;277;39811;-69
2023/06/09 09:48:13;;;;;;;4.30;3.10;;;;;;;32.68;24.33;100463.57;104026;277;39682;-69
2023/06/09 09:50:49;;;;;;;5.70;3.20;;;;;;;32.70;24.48;100465.16;103993;277;38464;-70
2023/06/09 09:53:24;;;;;;;4.00;3.30;;;;;;;32.71;24.72;100457.45;104010;277;38916;-69
2023/06/09 09:56:02;;;;;;;7.40;3.50;;;;;;;32.72;24.83;100459.13;104058;277;38353;-69
2023/06/09 09:58:42;;;;;;;4.40;3.00;;;;;;;32.63;24.53;100465.33;103991;277;38262;-69
2023/06/09 10:01:18;;;;;;;5.00;3.20;;;;;;;32.35;24.59;100463.70;103975;277;39147;-69
2023/06/09 10:03:55;;;;;;;3.50;3.00;;;;;;;32.17;24.83;100462.58;103994;277;38669;-70
2023/06/09 10:06:32;;;;;;;4.50;3.10;;;;;;;32.12;25.04;100450.92;103988;277;38442;-72
2023/06/09 10:09:07;;;;;;;6.50;3.20;;;;;;;32.21;24.95;100449.41;104021;277;38235;-69
2023/06/09 10:11:42;;;;;;;6.30;3.10;;;;;;;32.13;24.80;100455.02;104003;277;38875;-69
2023/06/09 10:14:19;;;;;;;3.90;3.10;;;;;;;31.87;24.54;100451.70;103836;278;39022;-69
2023/06/09 10:17:01;;;;;;;5.80;3.40;;;;;;;31.75;25.10;100447.50;103996;277;38255;-69
2023/06/09 10:19:40;;;;;;;3.90;2.90;;;;;;;31.72;25.20;100441.52;104008;277;38276;-69
2023/06/09 10:22:24;;;;;;;4.60;3.20;;;;;;;31.67;25.29;100437.86;104017;277;38499;-69
2023/06/09 10:25:04;;;;;;;7.20;3.30;;;;;;;31.54;25.46;100435.20;104028;277;39139;-68
2023/06/09 10:27:44;;;;;;;7.10;4.00;;;;;;;31.38;25.83;100431.59;104013;277;38477;-68
2023/06/09 10:30:22;;;;;;;4.20;3.40;;;;;;;31.25;26.01;100435.09;104019;277;38773;-67
2023/06/09 10:32:59;;;;;;;4.50;3.10;;;;;;;30.91;26.23;100428.82;104021;277;39088;-67
2023/06/09 10:35:38;;;;;;;7.30;3.80;;;;;;;30.59;26.48;100421.77;103973;277;38358;-69
2023/06/09 10:38:30;;;;;;;6.10;3.60;;;;;;;30.22;26.64;100417.59;103978;277;39635;-69
2023/06/09 10:41:32;;;;;;;5.90;4.20;;;;;;;29.95;27.03;100412.73;104080;277;38979;-68
2023/06/09 10:44:24;;;;;;;6.40;3.00;;;;;;;29.90;27.40;100410.63;104006;277;38599;-69
2023/06/09 10:46:59;;;;;;;5.90;2.90;;;;;;;30.03;27.84;100401.54;103985;277;38680;-68
2023/06/09 10:49:41;;;;;;;;;;;;;;;30.33;27.29;100409.21;104022;277;39892;-70
2023/06/09 10:52:58;;;;;;;4.30;2.90;;;;;;;30.28;26.22;100406.23;104012;277;38273;-69
2023/06/09 10:55:35;;;;;;;6.10;3.20;;;;;;;30.01;26.83;100404.15;104003;277;40122;-68
2023/06/09 10:58:40;;;;;;;3.10;2.90;;;;;;;30.01;26.87;100395.65;104002;277;38980;-69
2023/06/09 11:01:20;;;;;;;3.30;3.00;;;;;;;30.14;26.77;100383.00;103985;277;38410;-69
2023/06/09 11:03:59;;;;;;;4.00;2.90;;;;;;;30.06;26.20;100383.02;104007;277;38368;-69
2023/06/09 11:06:52;;;;;;;4.60;2.80;;;;;;;30.06;26.80;100377.92;103978;265;38521;-67
2023/06/09 11:09:26;;;;;;;7.80;3.10;;;;;;;30.08;26.69;100374.29;104015;277;39591;-68
2023/06/09 11:12:08;;;;;;;6.40;3.00;;;;;;;30.07;27.00;100377.48;104005;277;39135;-68
2023/06/09 11:14:56;;;;;;;4.80;2.70;;;;;;;30.17;26.30;100375.04;104003;277;38291;-71
2023/06/09 11:17:36;;;;;;;;;;;;;;;30.24;26.23;100372.89;103997;277;38296;-71
2023/06/09 11:20:18;;;;;;;3.40;2.80;;;;;;;30.34;26.23;100377.06;104025;277;38507;-68
2023/06/09 11:23:07;;;;;;;4.20;2.40;;;;;;;30.37;25.59;100375.28;103259;277;597390;-68
2023/06/09 11:25:44;;;;;;;4.60;2.90;;;;;;;30.17;25.40;100372.34;103987;277;38534;-68
2023/06/09 11:28:27;;;;;;;3.10;2.70;;;;;;;30.17;25.74;100368.55;104002;285;39592;-69
2023/06/09 11:31:08;;;;;;;3.00;2.10;;;;;;;30.17;25.40;100361.85;104022;277;40430;-70
2023/06/09 11:33:53;;;;;;;3.30;2.60;;;;;;;30.26;26.08;100363.37;104034;277;38792;-70
2023/06/09 11:36:33;;;;;;;8.60;2.90;;;;;;;30.35;25.84;100360.80;103837;277;38792;-72
2023/06/09 11:39:09;;;;;;;11.60;3.70;;;;;;;30.37;25.41;100364.15;104016;277;38408;-71
2023/06/09 11:41:44;;;;;;;6.10;2.50;;;;;;;30.28;25.52;100354.30;103949;277;38339;-69
2023/06/09 11:44:18;;;;;;;5.90;2.70;;;;;;;30.17;26.03;100351.11;104020;277;38239;-69
2023/06/09 11:47:01;;;;;;;4.30;2.80;;;;;;;30.07;26.21;100354.14;103970;277;38228;-67
2023/06/09 11:49:52;;;;;;;3.00;2.60;;;;;;;29.81;26.36;100351.82;103927;277;173970;-69
2023/06/09 11:52:28;;;;;;;4.40;2.40;;;;;;;29.57;26.27;100349.77;104034;277;38246;-68
2023/06/09 11:55:09;;;;;;;4.40;2.90;;;;;;;29.56;26.35;100347.26;104016;277;38553;-70
2023/06/09 11:57:43;;;;;;;14.90;3.20;;;;;;;29.61;26.22;100342.49;104009;277;38615;-70
2023/06/09 12:00:20;;;;;;;9.80;3.00;;;;;;;29.66;26.48;100342.86;103748;277;40621;-69
2023/06/09 12:02:54;;;;;;;4.40;2.80;;;;;;;29.72;26.34;100341.70;103882;277;174284;-69
2023/06/09 12:05:28;;;;;;;7.40;2.70;;;;;;;29.59;26.03;100345.46;104060;277;39092;-70
2023/06/09 12:08:02;;;;;;;5.50;2.70;;;;;;;29.30;25.75;100336.45;104008;277;38441;-70
2023/06/09 12:10:36;;;;;;;3.80;3.10;;;;;;;29.11;25.91;100333.16;104033;277;38267;-69